Latest Weather Observations for Mount Baw Baw

IDV60801

Issued at 7:31 pm EDT Wednesday 10 February 2016 (issued every 30 minutes, with the page automatically refreshed every 10 minutes)

About weather observations | Map of weather stations | Latest weather observations for VIC | Other Formats
Station Details ID: 085291 Name: MOUNT BAW BAW Lat: -37.84 Lon: 146.27 Height: 1561.0 m
Data from the previous 72 hours. | See also: Recent months at Mount Baw Baw
Date/Time
EDT
Temp
°C
App
Temp
°C
Dew
Point
Rel
Hum
%
Delta-T
°C
Wind Press
QNH
hPa
Press
MSL
hPa
Rain
since 9 am
mm
Dir
 
Spd
km/h
Gust
km/h
Spd
kts
Gust
kts
10/07:30pm 14.4 10.7 2.6 45 5.7 WSW 11 19 - 10 - - 0.0
10/07:00pm 14.5 12.2 7.5 63 3.8 SW 9 15 - 8 - - 0.0
10/06:30pm 15.8 13.5 9.0 64 3.8 SW 11 19 - 10 - - 0.0
10/06:00pm 15.7 13.4 10.5 71 3.0 SW 13 17 - 9 - - 0.0
10/05:30pm 14.3 14.7 11.3 82 1.7 CALM 0 0 - 0 - - 0.0
10/05:00pm 15.7 13.9 10.9 73 2.8 SW 11 17 - 9 - - 0.0
10/04:30pm 16.7 13.9 9.9 64 3.9 WSW 15 20 - 11 - - 0.0
10/04:00pm 17.2 17.3 10.1 63 4.1 CALM 0 0 - 0 - - 0.0
10/03:30pm 18.0 15.2 7.1 49 5.9 W 11 20 - 11 - - 0.0
10/03:00pm 17.2 14.1 7.3 52 5.4 W 13 20 - 11 - - 0.0
10/02:30pm 16.9 14.0 8.1 56 4.8 WSW 13 28 - 15 - - 0.0
10/02:00pm 17.4 14.4 7.7 53 5.3 W 13 22 - 12 - - 0.0
10/01:30pm 17.4 14.1 6.3 48 5.9 W 13 20 - 11 - - 0.0
10/01:00pm 16.6 13.1 7.3 54 5.0 WSW 15 22 - 12 - - 0.0
10/12:30pm 17.6 14.8 8.7 56 5.0 W 13 19 - 10 - - 0.0
10/12:00pm 17.5 14.1 7.5 52 5.5 W 15 28 - 15 - - 0.0
10/11:30am 17.5 14.2 6.4 48 5.9 W 13 22 - 12 - - 0.0
10/11:00am 17.2 13.3 5.5 46 6.1 W 15 22 - 12 - - 0.0
10/10:30am 17.0 13.2 3.7 41 6.7 W 13 26 - 14 - - 0.0
10/10:00am 16.7 13.3 4.1 43 6.4 W 11 20 - 11 - - 0.0
10/09:30am 16.2 12.8 3.9 44 6.2 W 11 19 - 10 - - 0.0
10/09:00am 15.3 11.7 2.8 43 6.1 W 11 19 - 10 - - 0.0
10/08:30am 14.3 10.8 1.2 41 6.2 W 9 15 - 8 - - 0.0
10/08:00am 14.0 10.4 0.6 40 6.2 W 9 15 - 8 - - 0.0
10/07:30am 13.8 10.2 0.8 41 6.1 W 9 15 - 8 - - 0.0
10/07:00am 13.9 10.4 1.5 43 5.9 W 9 15 - 8 - - 0.0
10/06:30am 14.2 10.3 1.2 41 6.1 W 11 17 - 9 - - 0.0
10/06:00am 14.3 10.2 2.2 44 5.8 W 13 17 - 9 - - 0.0
10/05:30am 14.4 10.0 0.6 39 6.4 W 13 17 - 9 - - 0.0
10/05:00am 14.6 9.9 -1.9 32 7.3 W 13 17 - 9 - - 0.0
10/04:30am 14.4 10.0 -2.5 31 7.4 W 11 15 - 8 - - 0.0
10/04:00am 14.5 9.7 -2.8 30 7.5 W 13 19 - 10 - - 0.0
10/03:30am 14.7 10.6 -0.2 36 6.8 W 11 17 - 9 - - 0.0
10/03:00am 14.7 11.8 4.7 51 5.1 NW 9 13 - 7 - - 0.0
10/02:30am 14.6 12.0 4.0 49 5.3 NW 7 13 - 7 - - 0.0
10/02:00am 14.5 11.6 2.7 45 5.8 W 7 11 - 6 - - 0.0
10/01:30am 15.1 12.3 5.3 52 5.1 WNW 9 13 - 7 - - 0.0
10/01:00am 15.1 12.4 5.6 53 4.9 WNW 9 13 - 7 - - 0.0
10/12:30am 15.0 12.6 7.1 59 4.2 NNW 9 13 - 7 - - 0.0
10/12:00am 14.6 12.8 8.1 65 3.5 NNW 7 9 - 5 - - 0.0
 
Date/Time
EDT
Temp
°C
App
Temp
°C
Dew
Point
Rel
Hum
%
Delta-T
°C
Wind Press
QNH
hPa
Press
MSL
hPa
Rain
since 9 am
mm
Dir
 
Spd
km/h
Gust
km/h
Spd
kts
Gust
kts
09/11:30pm 14.5 13.2 10.1 75 2.5 WSW 7 11 - 6 - - 0.0
09/11:00pm 14.6 13.3 11.2 80 2.0 W 9 9 - 5 - - 0.0
09/10:30pm 14.6 13.3 11.4 81 1.9 WSW 9 11 - 6 - - 0.0
09/10:00pm 14.5 13.7 11.8 84 1.6 WSW 7 9 - 5 - - 0.0
09/09:30pm 14.6 13.8 11.7 83 1.7 WNW 7 9 - 5 - - 0.0
09/09:00pm 14.3 13.5 11.8 85 1.5 WNW 7 9 - 5 - - 0.0
09/08:30pm 12.7 11.8 11.4 92 0.7 SSW 7 9 - 5 - - 0.0
09/08:00pm 14.2 11.3 9.8 75 2.5 SW 15 20 - 11 - - 0.0
09/07:30pm 16.0 13.4 9.4 65 3.7 SW 13 19 - 10 - - 0.0
09/07:00pm 17.0 14.0 9.2 60 4.4 SW 15 22 - 12 - - 0.0
09/06:30pm 17.8 15.5 10.4 62 4.3 SW 13 20 - 11 - - 0.0
09/06:00pm 18.2 16.4 11.0 63 4.2 SW 11 17 - 9 - - 0.0
09/05:30pm 18.2 16.3 11.7 66 3.8 SW 13 19 - 10 - - 0.0
09/05:00pm 17.8 15.9 11.8 68 3.5 SW 13 22 - 12 - - 0.0
09/04:30pm 17.9 16.0 11.9 68 3.6 SW 13 20 - 11 - - 0.0
09/04:00pm 17.6 16.6 13.3 76 2.6 SW 11 17 - 9 - - 0.0
09/03:30pm 18.3 16.5 12.1 67 3.7 SW 13 20 - 11 - - 0.0
09/03:00pm 18.2 16.5 12.4 69 3.5 SW 13 19 - 10 - - 0.0
09/02:30pm 19.0 17.9 13.2 69 3.5 SW 11 15 - 8 - - 0.0
09/02:00pm 19.2 18.3 12.7 66 3.9 SW 9 13 - 7 - - 0.0
09/01:30pm 19.9 18.5 10.9 56 5.3 SW 9 15 - 8 - - 0.0
09/01:00pm 20.5 18.9 8.2 45 6.9 S 6 11 - 6 - - 0.0
09/12:30pm 20.5 19.7 11.2 55 5.5 E 6 11 - 6 - - 0.0
09/12:00pm 19.8 18.1 8.2 47 6.5 E 7 15 - 8 - - 0.0
09/11:30am 19.6 18.2 9.5 52 5.8 SSE 7 13 - 7 - - 0.0
09/11:00am 18.3 15.9 7.1 48 6.1 ENE 9 17 - 9 - - 0.0
09/10:30am 17.9 15.1 5.2 43 6.7 ENE 9 15 - 8 - - 0.0
09/10:00am 17.8 15.1 3.7 39 7.2 ENE 7 15 - 8 - - 0.0
09/09:30am 18.0 15.0 1.9 34 7.9 E 7 13 - 7 - - 0.0
09/09:00am 16.7 13.3 -0.9 30 8.1 E 7 11 - 6 - - 0.0
09/08:30am 16.6 12.6 -5.2 22 9.2 E 7 11 - 6 - - 0.0
09/08:00am 15.6 11.6 -5.4 23 8.7 E 7 11 - 6 - - 0.0
09/07:30am 15.2 10.8 -5.8 23 8.6 E 9 11 - 6 - - 0.0
09/07:00am 14.0 9.8 -3.7 29 7.5 ESE 9 13 - 7 - - 0.0
09/06:30am 12.9 8.8 -0.4 40 6.0 ESE 11 15 - 8 - - 0.0
09/06:00am 12.4 9.1 2.3 50 4.8 ESE 9 15 - 8 - - 0.0
09/05:30am 12.8 9.0 1.8 47 5.2 ESE 11 17 - 9 - - 0.0
09/05:00am 13.0 9.2 1.7 46 5.3 ESE 11 17 - 9 - - 0.0
09/04:30am 12.6 8.8 1.6 47 5.2 SE 11 15 - 8 - - 0.0
09/04:00am 12.7 9.1 0.5 43 5.6 SE 9 17 - 9 - - 0.0
09/03:30am 11.9 8.0 -1.3 40 5.8 SE 9 15 - 8 - - 0.0
09/03:00am 12.0 7.2 -10.2 20 8.0 SE 9 17 - 9 - - 0.0
09/02:30am 12.3 7.1 -11.3 18 8.3 SSE 11 15 - 8 - - 0.0
09/02:00am 11.8 6.9 -12.4 17 8.3 SE 9 17 - 9 - - 0.0
09/01:30am 11.4 6.3 -16.0 13 8.6 SE 9 13 - 7 - - 0.0
09/01:00am 11.5 6.4 -15.9 13 8.6 SSE 9 15 - 8 - - 0.0
09/12:30am 11.2 6.1 -16.2 13 8.5 SE 9 15 - 8 - - 0.0
09/12:00am 11.2 6.1 -15.3 14 8.4 SE 9 13 - 7 - - 0.0
 
Date/Time
EDT
Temp
°C
App
Temp
°C
Dew
Point
Rel
Hum
%
Delta-T
°C
Wind Press
QNH
hPa
Press
MSL
hPa
Rain
since 9 am
mm
Dir
 
Spd
km/h
Gust
km/h
Spd
kts
Gust
kts
08/11:30pm 12.1 6.8 -21.1 8 9.4 SSE 9 17 - 9 - - 0.0
08/11:00pm 12.0 6.8 -17.5 11 9.0 SE 9 15 - 8 - - 0.0
08/10:30pm 12.1 6.9 -17.4 11 9.1 S 9 15 - 8 - - 0.0
08/10:00pm 11.6 6.8 -10.6 20 7.9 SSE 9 15 - 8 - - 0.0
08/09:30pm 11.6 6.6 -8.3 24 7.4 S 11 17 - 9 - - 0.0
08/09:00pm 11.6 7.0 -4.5 32 6.5 S 11 17 - 9 - - 0.0
08/08:30pm 10.8 7.8 0.5 49 4.7 SSE 6 11 - 6 - - 0.0
08/08:00pm 10.8 9.1 9.7 93 0.6 SSW 9 15 - 8 - - 0.0
08/07:30pm 13.2 12.3 9.1 76 2.3 SSW 4 13 - 7 - - 0.0
08/07:00pm 14.6 13.6 8.8 68 3.2 SSW 4 15 - 8 - - 0.0
08/06:30pm 15.2 14.7 8.0 62 3.9 CALM 0 0 - 0 - - 0.0
08/06:00pm 14.8 14.5 8.7 67 3.4 CALM 0 0 - 0 - - 0.0
08/05:30pm 14.8 14.5 8.7 67 3.4 CALM 0 0 - 0 - - 0.0
08/05:00pm 16.1 16.7 11.9 76 2.5 CALM 0 0 - 0 - - 0.0
08/04:30pm 16.0 13.9 11.2 73 2.8 SW 13 20 - 11 - - 0.0
08/04:00pm 16.7 13.4 8.1 57 4.7 SW 15 20 - 11 - - 0.0
08/03:30pm 17.5 13.7 4.1 41 6.9 WSW 13 20 - 11 - - 0.0
08/03:00pm 17.4 14.2 6.9 50 5.7 WSW 13 22 - 12 - - 0.0
08/02:30pm 18.0 14.5 7.1 49 5.9 WSW 15 26 - 14 - - 0.0
08/02:00pm 18.2 14.8 7.6 50 5.8 WSW 15 24 - 13 - - 0.0
08/01:30pm 18.4 15.4 7.8 50 5.9 WSW 13 24 - 13 - - 0.0
08/01:00pm 19.0 15.2 7.4 47 6.4 W 17 24 - 13 - - 0.0
08/12:30pm 18.7 14.6 2.5 34 8.1 WSW 13 19 - 10 - - 0.0
08/12:00pm 18.8 15.0 3.8 37 7.7 WSW 13 22 - 12 - - 0.0
08/11:30am 18.7 14.6 4.1 38 7.5 W 15 24 - 13 - - 0.0
08/11:00am 17.7 13.3 5.0 43 6.6 W 17 24 - 13 - - 0.0
08/10:30am 17.6 13.7 7.1 50 5.7 W 17 26 - 14 - - 0.0
08/10:00am 17.0 13.0 6.8 51 5.5 W 17 24 - 13 - - 0.0
08/09:30am 16.4 12.3 4.1 44 6.3 W 15 22 - 12 - - 0.0
08/09:00am 15.7 11.7 4.7 48 5.6 WSW 15 20 - 11 - - 0.0
08/08:30am 15.0 12.1 6.3 56 4.6 WSW 11 17 - 9 - - 0.0
08/08:00am 14.4 10.8 5.2 54 4.7 WSW 13 17 - 9 - - 0.0
08/07:30am 14.6 10.7 3.4 47 5.5 WSW 13 19 - 10 - - 0.0
08/07:00am 14.4 10.7 2.3 44 5.8 WSW 11 17 - 9 - - 0.0
08/06:30am 14.1 10.7 3.8 50 5.1 WSW 11 15 - 8 - - 0.0
08/06:00am 14.1 10.7 3.8 50 5.1 WSW 11 13 - 7 - - 0.0
08/05:30am 12.9 9.3 5.1 59 4.0 WSW 13 15 - 8 - - 0.0
08/05:00am 13.4 9.6 3.8 52 4.7 WSW 13 17 - 9 - - 0.0
08/04:30am 13.6 10.5 3.4 50 5.0 SW 9 13 - 7 - - 0.0
08/04:00am 13.8 10.6 3.3 49 5.2 SW 9 11 - 6 - - 0.0
08/03:30am 13.9 11.1 3.1 48 5.3 SW 7 11 - 6 - - 0.0
08/03:00am 13.8 11.9 4.7 54 4.6 S 4 7 - 4 - - 0.0
08/02:30am 13.7 11.7 7.2 65 3.5 S 7 9 - 5 - - 0.0
08/02:00am 13.9 12.1 7.9 67 3.2 S 7 11 - 6 - - 0.0
08/01:30am 14.0 12.1 7.5 65 3.5 S 7 11 - 6 - - 0.0
08/01:00am 13.1 10.8 7.5 69 3.0 SSW 9 13 - 7 - - 0.0
08/12:30am 13.2 10.8 7.2 67 3.2 SSW 9 11 - 6 - - 0.0
08/12:00am 13.8 11.7 6.7 62 3.7 S 7 9 - 5 - - 0.0
 
Date/Time
EDT
Temp
°C
App
Temp
°C
Dew
Point
Rel
Hum
%
Delta-T
°C
Wind Press
QNH
hPa
Press
MSL
hPa
Rain
since 9 am
mm
Dir
 
Spd
km/h
Gust
km/h
Spd
kts
Gust
kts
07/11:30pm 14.2 12.5 8.2 67 3.3 S 7 9 - 5 - - 0.0
07/11:00pm 13.8 13.6 12.9 94 0.5 SSE 6 7 - 4 - - 0.0
07/10:30pm 13.7 13.2 12.6 93 0.6 SSE 7 9 - 5 - - 0.0
07/10:00pm 13.7 13.3 12.9 95 0.5 S 7 13 - 7 - - 0.0
07/09:30pm 13.5 12.7 12.9 96 0.4 SSW 9 13 - 7 - - 0.0
07/09:00pm 13.9 12.0 11.9 88 1.2 SW 13 17 - 9 - - 0.0
07/08:30pm 14.8 11.9 9.8 72 2.8 SSW 15 24 - 13 - - 0.0
07/08:00pm 16.1 13.2 9.5 65 3.7 SSW 15 20 - 11 - - 0.0

Other Formats:

Comma delimited format used in spreadsheet applications
http://www.bom.gov.au/fwo/IDV60801/IDV60801.95901.axf

JavaScript Object Notation format (JSON) in row-major order
http://www.bom.gov.au/fwo/IDV60801/IDV60801.95901.json